Time;durP1;ratioP1;P1;durP2;ratioP2;P2;SDS_P1;SDS_P2;PMS_P1;PMS_P2;Temp;Humidity;BMP_temperature;BMP_pressure;BME280_temperature;BME280_humidity;BME280_pressure;Samples;Min_cycle;Max_cycle;Signal;HPM_P1;HPM_P2
2022/11/14 00:02:35;;;;;;;;;;;20.70;45.40;;;;;;8330655;28;19917;-42
2022/11/14 00:06:35;;;;;;;;;;;20.70;45.40;;;;;;8330130;28;19928;-42
2022/11/14 00:10:36;;;;;;;;;;;20.70;45.40;;;;;;8330422;28;19948;-42
2022/11/14 00:14:37;;;;;;;;;;;20.60;45.40;;;;;;8330421;28;19936;-41
2022/11/14 00:18:37;;;;;;;;;;;20.70;45.50;;;;;;8329394;28;20454;-42
2022/11/14 00:22:38;;;;;;;;;;;20.60;45.40;;;;;;8362250;28;19916;-42
2022/11/14 00:26:38;;;;;;;;;;;20.60;45.40;;;;;;8330399;28;19943;-41
2022/11/14 00:30:39;;;;;;;;;;;20.60;45.40;;;;;;8329634;28;19931;-42
2022/11/14 00:34:39;;;;;;;;;;;20.60;45.50;;;;;;8329959;28;19925;-42
2022/11/14 00:38:40;;;;;;;;;;;20.60;45.50;;;;;;8330073;28;19913;-42
2022/11/14 00:42:40;;;;;;;;;;;20.60;45.50;;;;;;8329518;28;20093;-42
2022/11/14 00:46:41;;;;;;;;;;;20.50;45.50;;;;;;8330415;28;20302;-42
2022/11/14 00:50:41;;;;;;;;;;;20.50;45.50;;;;;;8329725;28;20373;-42
2022/11/14 00:54:42;;;;;;;;;;;20.50;45.60;;;;;;8329384;28;19917;-42
2022/11/14 00:58:42;;;;;;;;;;;20.50;45.60;;;;;;8329882;28;19917;-42
2022/11/14 01:02:43;;;;;;;;;;;20.50;45.60;;;;;;8329855;28;19956;-42
2022/11/14 01:06:43;;;;;;;;;;;20.40;45.60;;;;;;8330228;28;19921;-41
2022/11/14 01:10:45;;;;;;;;;;;20.40;45.60;;;;;;8335597;28;19972;-42
2022/11/14 01:14:45;;;;;;;;;;;20.40;45.60;;;;;;8335934;28;19944;-42
2022/11/14 01:18:46;;;;;;;;;;;20.40;45.60;;;;;;8335292;28;20378;-42
2022/11/14 01:22:46;;;;;;;;;;;20.40;45.60;;;;;;8335416;28;19921;-42
2022/11/14 01:26:47;;;;;;;;;;;20.40;46.20;;;;;;8335333;28;19956;-42
2022/11/14 01:30:47;;;;;;;;;;;20.30;45.60;;;;;;8334737;28;19976;-42
2022/11/14 01:34:48;;;;;;;;;;;20.30;45.60;;;;;;8335363;28;19921;-42
2022/11/14 01:38:51;;;;;;;;;;;20.30;45.70;;;;;;8334978;28;19913;-42
2022/11/14 01:43:10;;;;;;;;;;;20.30;45.60;;;;;;8334757;28;20008;-42
2022/11/14 01:47:12;;;;;;;;;;;20.30;45.70;;;;;;8334962;28;19918;-42
2022/11/14 01:51:30;;;;;;;;;;;20.30;45.70;;;;;;8334530;28;19979;-42
2022/11/14 01:55:31;;;;;;;;;;;20.20;45.60;;;;;;8334541;28;20003;-42
2022/11/14 01:59:33;;;;;;;;;;;20.20;45.70;;;;;;8334480;28;19967;-42
2022/11/14 02:03:37;;;;;;;;;;;20.20;45.70;;;;;;8334008;28;19941;-42
2022/11/14 02:07:38;;;;;;;;;;;20.20;45.70;;;;;;8301919;28;19921;-42
2022/11/14 02:11:40;;;;;;;;;;;20.20;45.70;;;;;;8329305;28;19964;-42
2022/11/14 02:15:41;;;;;;;;;;;20.20;45.70;;;;;;8333347;28;20293;-42
2022/11/14 02:19:56;;;;;;;;;;;20.10;45.70;;;;;;8333206;28;19913;-42
2022/11/14 02:23:56;;;;;;;;;;;20.10;45.80;;;;;;8333579;28;19998;-42
2022/11/14 02:27:58;;;;;;;;;;;20.10;45.80;;;;;;8333199;28;20382;-42
2022/11/14 02:31:59;;;;;;;;;;;20.10;45.80;;;;;;8333276;28;19925;-42
2022/11/14 02:35:59;;;;;;;;;;;20.10;45.80;;;;;;8333135;28;19936;-42
2022/11/14 02:40:00;;;;;;;;;;;20.10;45.80;;;;;;8332669;28;20028;-42
2022/11/14 02:44:00;;;;;;;;;;;20.10;45.80;;;;;;8332989;28;20380;-42
2022/11/14 02:48:01;;;;;;;;;;;20.00;45.80;;;;;;8333114;28;19932;-42
2022/11/14 02:52:01;;;;;;;;;;;20.00;45.80;;;;;;8332247;28;19948;-42
2022/11/14 02:56:01;;;;;;;;;;;20.00;45.90;;;;;;8332634;28;20012;-42
2022/11/14 03:00:03;;;;;;;;;;;20.00;45.80;;;;;;8332440;28;19919;-42
2022/11/14 03:04:03;;;;;;;;;;;20.00;45.90;;;;;;8331842;28;19924;-42
2022/11/14 03:08:04;;;;;;;;;;;20.00;45.90;;;;;;8332351;28;19925;-42
2022/11/14 03:12:04;;;;;;;;;;;20.00;45.90;;;;;;8332274;28;19917;-42
2022/11/14 03:16:06;;;;;;;;;;;20.00;45.90;;;;;;8331539;28;19917;-42
2022/11/14 03:20:07;;;;;;;;;;;19.90;45.90;;;;;;8331844;28;20357;-42
2022/11/14 03:24:07;;;;;;;;;;;19.90;45.90;;;;;;8331900;28;20473;-42
2022/11/14 03:28:08;;;;;;;;;;;19.90;45.90;;;;;;8331411;28;19931;-41
2022/11/14 03:32:08;;;;;;;;;;;19.90;45.90;;;;;;8330638;28;20393;-42
2022/11/14 03:36:08;;;;;;;;;;;19.90;45.90;;;;;;8331332;28;19987;-42
2022/11/14 03:40:09;;;;;;;;;;;19.90;45.90;;;;;;8330741;28;19917;-42
2022/11/14 03:44:10;;;;;;;;;;;19.90;46.00;;;;;;8331172;28;19971;-41
2022/11/14 03:48:10;;;;;;;;;;;19.90;46.00;;;;;;8331236;28;19932;-42
2022/11/14 03:52:11;;;;;;;;;;;19.80;45.90;;;;;;8330478;28;19917;-42
2022/11/14 03:56:11;;;;;;;;;;;19.80;45.90;;;;;;8330829;28;19928;-42
2022/11/14 04:00:12;;;;;;;;;;;19.80;46.00;;;;;;8330655;28;20020;-42
2022/11/14 04:04:13;;;;;;;;;;;19.80;46.50;;;;;;8306300;28;19924;-41
2022/11/14 04:08:13;;;;;;;;;;;19.80;46.00;;;;;;8330628;28;19932;-42
2022/11/14 04:12:14;;;;;;;;;;;19.80;46.00;;;;;;8330107;28;19921;-42
2022/11/14 04:16:14;;;;;;;;;;;19.80;46.00;;;;;;8330304;28;20370;-41
2022/11/14 04:20:15;;;;;;;;;;;19.80;46.00;;;;;;8330276;28;20366;-42
2022/11/14 04:24:15;;;;;;;;;;;19.80;46.00;;;;;;8329865;28;19913;-41
2022/11/14 04:28:15;;;;;;;;;;;19.80;45.90;;;;;;8330418;28;20385;-42
2022/11/14 04:32:16;;;;;;;;;;;19.90;45.90;;;;;;8330016;28;19917;-42
2022/11/14 04:36:16;;;;;;;;;;;19.90;45.90;;;;;;8329664;28;19921;-42
2022/11/14 04:40:17;;;;;;;;;;;19.90;45.80;;;;;;8330411;28;19917;-42
2022/11/14 04:44:17;;;;;;;;;;;20.00;45.90;;;;;;8336855;28;20401;-41
2022/11/14 04:48:18;;;;;;;;;;;20.00;45.80;;;;;;8336299;28;19936;-41
2022/11/14 04:52:18;;;;;;;;;;;20.00;45.80;;;;;;8336358;28;19940;-42
2022/11/14 04:56:21;;;;;;;;;;;20.10;45.80;;;;;;8336278;28;19940;-42
2022/11/14 05:00:22;;;;;;;;;;;20.10;45.80;;;;;;8335992;28;19921;-41
2022/11/14 05:04:23;;;;;;;;;;;20.10;45.70;;;;;;8336393;28;20443;-42
2022/11/14 05:08:23;;;;;;;;;;;20.10;45.70;;;;;;8335739;28;19929;-41
2022/11/14 05:12:24;;;;;;;;;;;20.20;45.70;;;;;;8315930;28;19963;-42
2022/11/14 05:16:24;;;;;;;;;;;20.20;45.70;;;;;;8319172;28;19924;-43
2022/11/14 05:20:25;;;;;;;;;;;20.20;45.60;;;;;;8335575;28;19975;-43
2022/11/14 05:24:27;;;;;;;;;;;20.30;45.70;;;;;;8335391;28;19924;-42
2022/11/14 05:28:27;;;;;;;;;;;20.30;45.60;;;;;;8335298;28;19933;-42
2022/11/14 05:32:28;;;;;;;;;;;20.30;45.60;;;;;;8335313;28;20324;-42
2022/11/14 05:36:28;;;;;;;;;;;20.30;45.50;;;;;;8334677;28;20000;-42
2022/11/14 05:40:29;;;;;;;;;;;20.30;45.50;;;;;;8334985;28;19964;-42
2022/11/14 05:44:29;;;;;;;;;;;20.40;45.50;;;;;;8335074;28;20345;-42
2022/11/14 05:48:30;;;;;;;;;;;20.40;45.50;;;;;;8334290;28;19925;-42
2022/11/14 05:52:30;;;;;;;;;;;20.40;46.00;;;;;;8333846;28;19917;-42
2022/11/14 05:56:30;;;;;;;;;;;20.50;45.50;;;;;;8334453;28;20341;-42
2022/11/14 06:00:31;;;;;;;;;;;20.50;45.50;;;;;;8333968;28;19944;-42
2022/11/14 06:04:31;;;;;;;;;;;20.50;45.50;;;;;;8334312;28;19920;-43
2022/11/14 06:08:32;;;;;;;;;;;20.50;45.50;;;;;;8333903;28;19925;-42
2022/11/14 06:12:33;;;;;;;;;;;20.50;45.40;;;;;;8333741;28;19917;-42
2022/11/14 06:16:33;;;;;;;;;;;20.60;45.40;;;;;;8333935;28;19917;-42
2022/11/14 06:20:35;;;;;;;;;;;20.60;45.40;;;;;;8333945;28;19936;-42
2022/11/14 06:24:35;;;;;;;;;;;20.60;45.40;;;;;;8333512;28;19917;-42
2022/11/14 06:28:36;;;;;;;;;;;20.60;45.40;;;;;;8333759;28;19925;-42
2022/11/14 06:32:36;;;;;;;;;;;20.60;45.40;;;;;;8333525;28;19956;-43
2022/11/14 06:36:36;;;;;;;;;;;20.60;45.40;;;;;;8332681;28;19924;-42
2022/11/14 06:40:37;;;;;;;;;;;20.70;46.00;;;;;;8333121;28;19913;-42
2022/11/14 06:44:37;;;;;;;;;;;20.70;45.90;;;;;;8333093;28;19921;-42
2022/11/14 06:48:38;;;;;;;;;;;20.70;45.40;;;;;;8332439;28;19925;-42
2022/11/14 06:52:38;;;;;;;;;;;20.70;45.40;;;;;;8332721;28;19921;-43
2022/11/14 06:56:39;;;;;;;;;;;20.70;45.40;;;;;;8332524;28;20350;-42
2022/11/14 07:00:39;;;;;;;;;;;20.70;45.30;;;;;;8331957;28;19918;-42
2022/11/14 07:04:40;;;;;;;;;;;20.80;45.40;;;;;;8332792;28;19913;-43
2022/11/14 07:08:40;;;;;;;;;;;20.80;45.30;;;;;;8332125;28;19986;-43
2022/11/14 07:12:41;;;;;;;;;;;20.80;45.30;;;;;;8331648;28;19968;-42
2022/11/14 07:16:41;;;;;;;;;;;20.80;45.30;;;;;;8331907;28;19913;-42
2022/11/14 07:20:42;;;;;;;;;;;20.90;45.30;;;;;;8331809;28;19979;-42
2022/11/14 07:24:42;;;;;;;;;;;20.90;45.30;;;;;;8331304;28;19920;-42
2022/11/14 07:28:43;;;;;;;;;;;20.90;45.30;;;;;;8331333;28;19925;-42
2022/11/14 07:32:43;;;;;;;;;;;20.90;45.30;;;;;;8331494;28;19917;-43
2022/11/14 07:36:44;;;;;;;;;;;20.90;45.20;;;;;;8331210;28;20445;-42
2022/11/14 07:40:53;;;;;;;;;;;20.90;45.20;;;;;;8331278;28;19913;-43
2022/11/14 07:44:54;;;;;;;;;;;20.90;45.20;;;;;;8331345;28;20378;-43
2022/11/14 07:48:54;;;;;;;;;;;20.90;45.20;;;;;;8330379;28;20004;-43
2022/11/14 07:52:56;;;;;;;;;;;20.90;45.20;;;;;;8330565;28;19917;-43
2022/11/14 07:56:56;;;;;;;;;;;20.90;45.20;;;;;;8330686;28;19924;-43
2022/11/14 08:01:00;;;;;;;;;;;20.90;45.20;;;;;;8330228;28;20296;-44
2022/11/14 08:05:01;;;;;;;;;;;20.90;45.20;;;;;;8330947;28;19917;-42
2022/11/14 08:09:02;;;;;;;;;;;21.00;45.20;;;;;;8311200;28;20012;-44
2022/11/14 08:13:03;;;;;;;;;;;21.00;45.80;;;;;;8316802;28;19917;-43
2022/11/14 08:17:05;;;;;;;;;;;21.00;45.20;;;;;;8329769;28;19921;-43
2022/11/14 08:21:05;;;;;;;;;;;21.00;45.20;;;;;;8330319;28;19917;-43
2022/11/14 08:25:06;;;;;;;;;;;21.00;45.20;;;;;;8329942;28;20436;-42
2022/11/14 08:29:06;;;;;;;;;;;21.00;45.20;;;;;;8330007;28;19956;-43
2022/11/14 08:33:07;;;;;;;;;;;21.00;45.20;;;;;;8330235;28;19913;-43
2022/11/14 08:37:07;;;;;;;;;;;21.00;45.20;;;;;;8329855;28;19917;-43
2022/11/14 08:41:08;;;;;;;;;;;21.00;45.10;;;;;;8330185;28;19971;-43
2022/11/14 08:45:08;;;;;;;;;;;21.10;45.20;;;;;;8330024;28;20489;-43
2022/11/14 08:49:08;;;;;;;;;;;21.10;45.20;;;;;;8329250;28;20029;-43
2022/11/14 08:53:09;;;;;;;;;;;21.10;45.20;;;;;;8329920;28;19917;-43
2022/11/14 08:57:13;;;;;;;;;;;21.10;45.20;;;;;;8329637;28;19913;-45
2022/11/14 09:01:14;;;;;;;;;;;21.10;45.20;;;;;;8329296;28;19936;-43
2022/11/14 09:05:14;;;;;;;;;;;21.10;45.10;;;;;;8329833;28;19917;-43
2022/11/14 09:09:15;;;;;;;;;;;21.20;45.20;;;;;;8329030;28;20295;-43
2022/11/14 09:13:15;;;;;;;;;;;21.10;45.20;;;;;;8329363;28;19917;-42
2022/11/14 09:17:16;;;;;;;;;;;21.20;45.20;;;;;;8329647;28;19913;-44
2022/11/14 09:21:16;;;;;;;;;;;21.20;45.30;;;;;;8328870;28;19928;-44
2022/11/14 09:25:17;;;;;;;;;;;21.20;45.20;;;;;;8329396;28;20000;-42
2022/11/14 09:29:17;;;;;;;;;;;21.20;45.30;;;;;;8332595;28;19925;-43
2022/11/14 09:33:18;;;;;;;;;;;21.20;45.30;;;;;;8334850;28;20363;-43
2022/11/14 09:37:18;;;;;;;;;;;21.20;45.30;;;;;;8334871;28;19917;-43
2022/11/14 09:41:37;;;;;;;;;;;21.20;45.30;;;;;;8334677;28;19953;-42
2022/11/14 09:45:40;;;;;;;;;;;21.20;45.30;;;;;;8334505;28;20364;-42
2022/11/14 09:49:44;;;;;;;;;;;21.20;45.30;;;;;;8334732;28;19987;-43
2022/11/14 09:53:55;;;;;;;;;;;21.30;45.40;;;;;;8334759;28;20321;-43
2022/11/14 09:57:55;;;;;;;;;;;21.20;45.30;;;;;;8334108;28;20382;-43
2022/11/14 10:02:10;;;;;;;;;;;21.30;45.40;;;;;;8334365;28;19924;-42
2022/11/14 10:06:29;;;;;;;;;;;21.30;45.40;;;;;;8334372;28;19913;-42
2022/11/14 10:10:48;;;;;;;;;;;21.30;45.40;;;;;;8334198;28;20377;-42
2022/11/14 10:15:07;;;;;;;;;;;21.30;45.40;;;;;;8333849;28;20336;-42
2022/11/14 10:19:37;;;;;;;;;;;21.30;45.40;;;;;;8333386;28;19924;-42
2022/11/14 10:23:44;;;;;;;;;;;21.30;45.40;;;;;;8320715;28;20317;-43
2022/11/14 10:27:53;;;;;;;;;;;21.30;45.40;;;;;;8333138;28;19960;-42
2022/11/14 10:31:56;;;;;;;;;;;21.30;45.40;;;;;;8333424;28;19943;-43
2022/11/14 10:36:00;;;;;;;;;;;21.40;45.50;;;;;;8333567;28;20297;-42
2022/11/14 10:40:18;;;;;;;;;;;21.40;45.50;;;;;;8332628;28;20277;-43
2022/11/14 10:44:21;;;;;;;;;;;21.40;45.50;;;;;;8333268;28;19917;-43
2022/11/14 10:48:34;;;;;;;;;;;21.40;45.60;;;;;;8332363;28;20267;-41
2022/11/14 10:52:37;;;;;;;;;;;21.40;45.50;;;;;;8332895;28;19917;-41
2022/11/14 10:56:45;;;;;;;;;;;21.40;45.60;;;;;;8333127;28;20309;-42
2022/11/14 11:00:45;;;;;;;;;;;21.40;45.60;;;;;;8332297;28;20012;-42
2022/11/14 11:04:45;;;;;;;;;;;21.40;45.60;;;;;;8332177;28;19924;-43
2022/11/14 11:13:05;;;;;;;;;;;21.40;45.60;;;;;;8331992;28;19971;-42
2022/11/14 11:17:07;;;;;;;;;;;21.40;45.60;;;;;;8331951;28;20295;-44
2022/11/14 11:21:12;;;;;;;;;;;21.40;45.60;;;;;;8332190;28;19913;-42
2022/11/14 11:25:26;;;;;;;;;;;21.40;45.60;;;;;;8331268;28;19918;-43
2022/11/14 11:29:27;;;;;;;;;;;21.50;45.60;;;;;;8331722;28;19932;-44
2022/11/14 11:33:29;;;;;;;;;;;21.40;45.60;;;;;;8331154;28;19917;-43
2022/11/14 11:37:41;;;;;;;;;;;21.40;45.60;;;;;;8331947;28;19921;-43
2022/11/14 11:41:42;;;;;;;;;;;21.50;45.70;;;;;;8331531;28;19913;-42
2022/11/14 11:45:46;;;;;;;;;;;21.50;45.70;;;;;;8330665;28;19924;-42
2022/11/14 11:49:51;;;;;;;;;;;21.50;45.70;;;;;;8330800;28;19933;-44
2022/11/14 11:54:09;;;;;;;;;;;21.50;45.80;;;;;;8330760;28;19917;-42
2022/11/14 11:58:13;;;;;;;;;;;21.50;45.70;;;;;;8330514;28;19963;-42
2022/11/14 12:02:13;;;;;;;;;;;21.50;45.70;;;;;;8330603;28;19919;-42
2022/11/14 12:06:24;;;;;;;;;;;21.60;45.80;;;;;;8330298;28;20305;-42
2022/11/14 12:10:29;;;;;;;;;;;21.50;45.80;;;;;;8330772;28;19925;-42
2022/11/14 12:14:47;;;;;;;;;;;21.60;45.80;;;;;;8329871;28;21562;-42
2022/11/14 12:19:13;;;;;;;;;;;21.60;45.80;;;;;;8330142;28;20484;-42
2022/11/14 12:23:14;;;;;;;;;;;21.60;45.80;;;;;;8330537;28;19917;-42
2022/11/14 12:27:23;;;;;;;;;;;21.60;45.80;;;;;;8330235;28;19928;-42
2022/11/14 12:31:26;;;;;;;;;;;21.60;45.80;;;;;;8330461;28;19937;-42
2022/11/14 12:35:31;;;;;;;;;;;21.60;45.80;;;;;;8330228;28;20000;-42
2022/11/14 12:39:32;;;;;;;;;;;21.60;45.80;;;;;;8329856;28;20285;-41
2022/11/14 12:43:37;;;;;;;;;;;21.60;45.80;;;;;;8330268;28;19956;-42
2022/11/14 12:47:57;;;;;;;;;;;21.60;45.80;;;;;;8329900;28;19913;-42
2022/11/14 12:51:57;;;;;;;;;;;21.60;45.80;;;;;;8329438;28;20015;-42
2022/11/14 12:56:06;;;;;;;;;;;21.60;45.80;;;;;;8330013;28;19936;-42
2022/11/14 13:00:07;;;;;;;;;;;21.60;45.80;;;;;;8329915;28;19917;-42
2022/11/14 13:04:23;;;;;;;;;;;21.70;45.90;;;;;;8334141;28;19917;-41
2022/11/14 13:08:23;;;;;;;;;;;21.70;45.90;;;;;;8335898;28;19925;-41
2022/11/14 13:25:22;;;;;;;;;;;21.70;45.90;;;;;;8335373;28;19971;-42
2022/11/14 13:29:34;;;;;;;;;;;21.70;45.90;;;;;;8335293;28;19925;-42
2022/11/14 13:33:43;;;;;;;;;;;21.70;45.90;;;;;;8335010;28;19917;-42
2022/11/14 13:37:56;;;;;;;;;;;21.80;45.90;;;;;;8335280;28;19913;-42
2022/11/14 13:42:03;;;;;;;;;;;21.80;45.90;;;;;;8335258;28;20255;-42
2022/11/14 13:46:20;;;;;;;;;;;21.80;45.90;;;;;;8334418;28;19923;-41
2022/11/14 13:50:27;;;;;;;;;;;21.70;45.80;;;;;;8334866;28;20321;-41
2022/11/14 13:54:28;;;;;;;;;;;21.70;45.90;;;;;;8334296;28;20377;-41
2022/11/14 13:58:47;;;;;;;;;;;21.70;45.90;;;;;;8334510;28;19917;-41
2022/11/14 14:02:47;;;;;;;;;;;21.80;45.90;;;;;;8333178;28;19913;-41
2022/11/14 14:06:48;;;;;;;;;;;21.80;46.00;;;;;;8332523;28;20012;-42
2022/11/14 14:10:51;;;;;;;;;;;21.80;46.00;;;;;;8334050;28;19929;-42
2022/11/14 14:14:51;;;;;;;;;;;21.80;46.00;;;;;;8333131;28;20396;-41
2022/11/14 14:18:55;;;;;;;;;;;21.80;46.00;;;;;;8333637;28;19917;-41
2022/11/14 14:22:58;;;;;;;;;;;21.80;46.00;;;;;;8334408;28;19913;-41
2022/11/14 14:27:04;;;;;;;;;;;21.80;46.00;;;;;;8333726;28;19921;-42
2022/11/14 14:31:15;;;;;;;;;;;21.80;46.00;;;;;;8332967;28;19979;-42
2022/11/14 14:35:29;;;;;;;;;;;21.80;46.00;;;;;;8333209;28;19917;-42
2022/11/14 14:39:30;;;;;;;;;;;21.80;45.90;;;;;;8332802;28;20553;-42
2022/11/14 14:43:31;;;;;;;;;;;21.80;46.50;;;;;;8333154;28;19941;-42
2022/11/14 14:47:42;;;;;;;;;;;21.80;46.00;;;;;;8329678;28;19939;-42
2022/11/14 14:51:43;;;;;;;;;;;21.80;46.00;;;;;;8307759;28;19933;-42
2022/11/14 14:55:50;;;;;;;;;;;21.80;46.00;;;;;;8325360;28;20293;-42
2022/11/14 15:00:04;;;;;;;;;;;21.80;46.10;;;;;;8320968;28;19943;-42
2022/11/14 15:04:06;;;;;;;;;;;21.80;46.10;;;;;;8329532;28;20405;-42
2022/11/14 15:08:11;;;;;;;;;;;21.80;46.10;;;;;;8325476;28;19925;-42
2022/11/14 15:12:11;;;;;;;;;;;21.80;46.10;;;;;;8319975;28;19921;-42
2022/11/14 15:16:12;;;;;;;;;;;21.70;46.10;;;;;;8330883;28;19940;-42
2022/11/14 15:20:22;;;;;;;;;;;21.70;46.10;;;;;;8317917;28;20393;-42
2022/11/14 15:24:23;;;;;;;;;;;21.70;46.10;;;;;;8305193;28;19917;-41
2022/11/14 15:28:24;;;;;;;;;;;21.70;46.10;;;;;;8308323;28;19982;-42
2022/11/14 15:32:24;;;;;;;;;;;21.80;46.10;;;;;;8325795;28;19925;-42
2022/11/14 15:36:25;;;;;;;;;;;21.70;46.10;;;;;;8305052;28;20016;-42
2022/11/14 15:40:25;;;;;;;;;;;21.70;46.10;;;;;;8322356;28;19924;-42
2022/11/14 15:44:33;;;;;;;;;;;21.70;46.20;;;;;;8303930;28;20278;-41
2022/11/14 15:48:33;;;;;;;;;;;21.70;46.20;;;;;;8329235;28;19932;-40
2022/11/14 15:52:36;;;;;;;;;;;21.70;46.20;;;;;;8313885;28;20396;-41
2022/11/14 15:56:36;;;;;;;;;;;21.70;46.20;;;;;;8322155;28;19917;-41
2022/11/14 16:00:43;;;;;;;;;;;21.70;46.10;;;;;;8311554;28;19975;-41
2022/11/14 16:04:44;;;;;;;;;;;21.70;46.20;;;;;;8320180;28;19921;-41
2022/11/14 16:08:45;;;;;;;;;;;21.70;46.20;;;;;;8329209;28;20587;-41
2022/11/14 16:12:45;;;;;;;;;;;21.70;46.20;;;;;;8329475;28;19917;-41
2022/11/14 16:16:45;;;;;;;;;;;21.70;46.20;;;;;;8330173;28;19925;-41
2022/11/14 16:20:46;;;;;;;;;;;21.80;46.20;;;;;;8330099;28;19925;-41
2022/11/14 16:24:46;;;;;;;;;;;21.70;46.20;;;;;;8329527;28;20008;-41
2022/11/14 16:28:47;;;;;;;;;;;21.80;46.20;;;;;;8329611;28;19921;-42
2022/11/14 16:32:48;;;;;;;;;;;21.70;46.20;;;;;;8329758;28;20436;-42
2022/11/14 16:36:51;;;;;;;;;;;21.80;46.20;;;;;;8330554;28;19949;-41
2022/11/14 16:40:51;;;;;;;;;;;21.80;46.20;;;;;;8336428;28;19924;-41
2022/11/14 16:44:57;;;;;;;;;;;21.80;46.20;;;;;;8336656;28;19917;-41
2022/11/14 16:48:58;;;;;;;;;;;21.80;46.20;;;;;;8336202;28;20305;-42
2022/11/14 16:52:58;;;;;;;;;;;21.80;46.20;;;;;;8336522;28;19925;-41
2022/11/14 16:56:59;;;;;;;;;;;21.80;46.20;;;;;;8336037;28;19928;-41
2022/11/14 17:00:59;;;;;;;;;;;21.80;46.20;;;;;;8335276;28;19924;-41
2022/11/14 17:05:00;;;;;;;;;;;21.80;46.20;;;;;;8323635;28;19921;-42
2022/11/14 17:09:00;;;;;;;;;;;21.80;46.20;;;;;;8335624;28;19933;-41
2022/11/14 17:13:01;;;;;;;;;;;21.90;46.20;;;;;;8335313;28;19917;-42
2022/11/14 17:17:01;;;;;;;;;;;21.80;46.10;;;;;;8335479;28;19917;-42
2022/11/14 17:21:05;;;;;;;;;;;21.80;46.20;;;;;;8335416;28;20008;-42
2022/11/14 17:25:06;;;;;;;;;;;21.80;46.20;;;;;;8335001;28;19917;-42
2022/11/14 17:29:07;;;;;;;;;;;21.90;46.20;;;;;;8335327;28;19925;-42
2022/11/14 17:33:07;;;;;;;;;;;21.90;46.20;;;;;;8335278;28;19917;-42
2022/11/14 17:37:08;;;;;;;;;;;21.90;46.20;;;;;;8334694;28;19918;-42
2022/11/14 17:41:08;;;;;;;;;;;21.90;46.10;;;;;;8334938;28;20024;-42
2022/11/14 17:45:09;;;;;;;;;;;21.90;46.10;;;;;;8334728;28;19921;-42
2022/11/14 17:49:09;;;;;;;;;;;21.90;46.10;;;;;;8333304;28;19925;-42
2022/11/14 17:53:10;;;;;;;;;;;21.90;46.10;;;;;;8334600;28;19925;-42
2022/11/14 17:57:12;;;;;;;;;;;21.90;46.10;;;;;;8334584;28;19920;-42
2022/11/14 18:01:13;;;;;;;;;;;21.90;46.00;;;;;;8332697;28;19980;-42
2022/11/14 18:05:14;;;;;;;;;;;21.90;46.00;;;;;;8334292;28;19947;-42
2022/11/14 18:09:14;;;;;;;;;;;21.90;46.00;;;;;;8334148;28;20381;-42
2022/11/14 18:13:15;;;;;;;;;;;21.90;46.00;;;;;;8334416;28;19921;-42
2022/11/14 18:17:15;;;;;;;;;;;21.90;46.00;;;;;;8333934;28;19921;-42
2022/11/14 18:21:17;;;;;;;;;;;21.90;46.00;;;;;;8333805;28;19920;-42
2022/11/14 18:25:17;;;;;;;;;;;21.90;46.00;;;;;;8333712;28;19914;-43
2022/11/14 18:29:17;;;;;;;;;;;22.00;46.00;;;;;;8333959;28;20345;-43
2022/11/14 18:33:18;;;;;;;;;;;22.00;46.00;;;;;;8332982;28;20382;-42
2022/11/14 18:37:18;;;;;;;;;;;22.00;46.00;;;;;;8333200;28;19921;-42
2022/11/14 18:41:20;;;;;;;;;;;22.00;46.00;;;;;;8333334;28;20341;-43
2022/11/14 18:45:20;;;;;;;;;;;22.00;46.00;;;;;;8331396;28;19931;-42
2022/11/14 18:49:21;;;;;;;;;;;22.00;45.90;;;;;;8332959;28;20373;-42
2022/11/14 18:53:22;;;;;;;;;;;22.00;45.90;;;;;;8332703;28;20422;-42
2022/11/14 18:57:22;;;;;;;;;;;22.00;45.80;;;;;;8332290;28;19913;-41
2022/11/14 19:01:25;;;;;;;;;;;22.00;45.90;;;;;;8332467;28;19928;-41
2022/11/14 19:05:25;;;;;;;;;;;22.00;45.80;;;;;;8332260;28;19920;-41
2022/11/14 19:09:25;;;;;;;;;;;22.00;45.80;;;;;;8331969;28;19925;-41
2022/11/14 19:13:26;;;;;;;;;;;22.00;45.80;;;;;;8332079;28;19923;-41
2022/11/14 19:17:27;;;;;;;;;;;22.00;45.80;;;;;;8332227;28;19917;-41
2022/11/14 19:21:27;;;;;;;;;;;22.10;45.80;;;;;;8331422;28;19914;-41
2022/11/14 19:25:28;;;;;;;;;;;22.00;45.70;;;;;;8331685;28;20294;-42
2022/11/14 19:29:28;;;;;;;;;;;22.00;45.70;;;;;;8331704;28;20492;-42
2022/11/14 19:33:29;;;;;;;;;;;22.10;45.80;;;;;;8331216;28;20408;-41
2022/11/14 19:37:29;;;;;;;;;;;22.10;45.80;;;;;;8331804;28;19921;-42
2022/11/14 19:41:31;;;;;;;;;;;22.10;45.70;;;;;;8331152;28;19920;-41
2022/11/14 19:45:34;;;;;;;;;;;22.10;45.70;;;;;;8330796;28;20374;-42
2022/11/14 19:49:35;;;;;;;;;;;22.10;45.70;;;;;;8331489;28;19968;-42
2022/11/14 19:53:36;;;;;;;;;;;22.10;45.60;;;;;;8331147;28;19917;-41
2022/11/14 19:57:36;;;;;;;;;;;22.10;45.60;;;;;;8330428;28;19917;-42
2022/11/14 20:01:37;;;;;;;;;;;22.10;45.60;;;;;;8330783;28;20374;-42
2022/11/14 20:05:37;;;;;;;;;;;22.10;45.60;;;;;;8330787;28;19999;-42
2022/11/14 20:09:38;;;;;;;;;;;22.10;45.60;;;;;;8314037;28;19925;-42
2022/11/14 20:13:40;;;;;;;;;;;22.10;45.50;;;;;;8323602;28;19918;-41
2022/11/14 20:17:41;;;;;;;;;;;22.10;45.50;;;;;;8330472;28;19913;-42
2022/11/14 20:21:42;;;;;;;;;;;22.20;45.50;;;;;;8329792;28;19917;-42
2022/11/14 20:25:42;;;;;;;;;;;22.20;45.50;;;;;;8330481;28;19913;-42
2022/11/14 20:29:43;;;;;;;;;;;22.20;45.50;;;;;;8330774;28;19972;-42
2022/11/14 20:33:44;;;;;;;;;;;22.20;45.40;;;;;;8329876;28;19917;-42
2022/11/14 20:37:46;;;;;;;;;;;22.20;45.40;;;;;;8328751;28;19924;-41
2022/11/14 20:41:46;;;;;;;;;;;22.20;45.40;;;;;;8330192;28;20279;-42
2022/11/14 20:45:54;;;;;;;;;;;22.30;45.40;;;;;;8329557;28;19917;-41
2022/11/14 20:49:54;;;;;;;;;;;22.30;45.30;;;;;;8330066;28;19925;-42
2022/11/14 20:53:55;;;;;;;;;;;22.30;45.30;;;;;;8329851;28;19921;-43
2022/11/14 20:57:55;;;;;;;;;;;22.30;45.30;;;;;;8329495;28;19971;-42
2022/11/14 21:01:56;;;;;;;;;;;22.30;45.20;;;;;;8328819;28;19913;-42
2022/11/14 21:05:58;;;;;;;;;;;22.30;45.20;;;;;;8329642;28;19928;-42
2022/11/14 21:14:18;;;;;;;;;;;22.30;45.20;;;;;;8329833;28;20349;-42
2022/11/14 21:18:18;;;;;;;;;;;22.40;45.20;;;;;;8329113;28;19913;-43
2022/11/14 21:22:18;;;;;;;;;;;22.40;45.10;;;;;;8329670;28;19924;-41
2022/11/14 21:26:20;;;;;;;;;;;22.40;45.10;;;;;;8335492;28;19921;-42
2022/11/14 21:30:21;;;;;;;;;;;22.40;45.10;;;;;;8335216;28;20428;-42
2022/11/14 21:34:21;;;;;;;;;;;22.30;45.10;;;;;;8335392;28;19971;-41
2022/11/14 21:38:22;;;;;;;;;;;22.30;45.10;;;;;;8335216;28;19918;-41
2022/11/14 21:42:22;;;;;;;;;;;22.20;45.00;;;;;;8334570;28;19920;-42
2022/11/14 21:46:23;;;;;;;;;;;22.20;45.00;;;;;;8333690;28;19921;-42
2022/11/14 21:50:24;;;;;;;;;;;22.20;45.00;;;;;;8334876;28;19936;-42
2022/11/14 21:54:24;;;;;;;;;;;22.10;44.80;;;;;;8334130;28;19917;-41
2022/11/14 21:58:25;;;;;;;;;;;22.10;44.90;;;;;;8334538;28;20337;-42
2022/11/14 22:06:44;;;;;;;;;;;22.00;44.90;;;;;;8335218;28;19947;-42
2022/11/14 22:10:44;;;;;;;;;;;22.00;44.90;;;;;;8333044;28;20441;-43
2022/11/14 22:14:45;;;;;;;;;;;21.90;44.90;;;;;;8334192;28;20349;-44
2022/11/14 22:18:46;;;;;;;;;;;21.90;45.00;;;;;;8333499;28;19921;-42
2022/11/14 22:22:46;;;;;;;;;;;21.80;45.00;;;;;;8334100;28;19917;-42
2022/11/14 22:26:46;;;;;;;;;;;21.80;45.00;;;;;;8333878;28;19920;-43
2022/11/14 22:30:47;;;;;;;;;;;21.80;45.10;;;;;;8333285;28;19925;-43
2022/11/14 22:34:47;;;;;;;;;;;21.70;45.20;;;;;;8332927;28;19917;-43
2022/11/14 22:38:48;;;;;;;;;;;21.70;45.20;;;;;;8333470;28;19917;-43
2022/11/14 22:42:49;;;;;;;;;;;21.60;45.20;;;;;;8332869;28;19924;-44
2022/11/14 22:46:49;;;;;;;;;;;21.60;45.30;;;;;;8332941;28;19944;-43
2022/11/14 22:50:57;;;;;;;;;;;21.60;45.40;;;;;;8333142;28;20337;-43
2022/11/14 22:54:58;;;;;;;;;;;21.50;45.30;;;;;;8332739;28;20297;-43
2022/11/14 22:58:59;;;;;;;;;;;21.50;45.30;;;;;;8332584;28;19924;-44
2022/11/14 23:02:59;;;;;;;;;;;21.50;45.30;;;;;;8330246;28;19940;-42
2022/11/14 23:07:00;;;;;;;;;;;21.50;45.40;;;;;;8332193;28;19968;-43
2022/11/14 23:11:05;;;;;;;;;;;21.40;45.30;;;;;;8332502;28;19921;-43
2022/11/14 23:15:06;;;;;;;;;;;21.40;45.40;;;;;;8332304;28;20330;-43
2022/11/14 23:19:06;;;;;;;;;;;21.40;45.40;;;;;;8331633;28;19924;-44
2022/11/14 23:23:07;;;;;;;;;;;21.40;45.50;;;;;;8332145;28;19947;-43
2022/11/14 23:27:07;;;;;;;;;;;21.30;45.40;;;;;;8331711;28;20432;-45
2022/11/14 23:31:08;;;;;;;;;;;21.30;45.50;;;;;;8331320;28;19975;-42
2022/11/14 23:35:09;;;;;;;;;;;21.30;45.50;;;;;;8331691;28;19921;-44
2022/11/14 23:39:09;;;;;;;;;;;21.30;45.50;;;;;;8331623;28;20017;-43
2022/11/14 23:43:10;;;;;;;;;;;21.20;45.50;;;;;;8331264;28;19925;-43
2022/11/14 23:47:10;;;;;;;;;;;21.20;45.50;;;;;;8330287;28;20011;-43
2022/11/14 23:51:12;;;;;;;;;;;21.20;45.50;;;;;;8331226;28;20381;-43
2022/11/14 23:55:12;;;;;;;;;;;21.20;45.60;;;;;;8331057;28;19989;-43